createdAt,value
2019-05-26T00:00:06.289Z,97.00
2019-05-26T00:02:32.339Z,96.90
2019-05-26T00:04:58.416Z,96.80
2019-05-26T00:07:30.693Z,96.80
2019-05-26T00:09:52.443Z,96.70
2019-05-26T00:12:19.822Z,97.00
2019-05-26T00:14:45.871Z,96.60
2019-05-26T00:17:11.933Z,96.60
2019-05-26T00:19:38.008Z,96.60
2019-05-26T00:22:04.065Z,96.70
2019-05-26T00:24:30.113Z,96.90
2019-05-26T00:26:56.192Z,97.10
2019-05-26T00:29:22.249Z,96.50
2019-05-26T00:31:48.324Z,96.50
2019-05-26T00:34:14.380Z,96.90
2019-05-26T00:36:40.435Z,97.10
2019-05-26T00:39:06.507Z,97.30
2019-05-26T00:41:32.658Z,97.20
2019-05-26T00:43:58.701Z,97.40
2019-05-26T00:46:24.764Z,97.70
2019-05-26T00:48:50.831Z,97.80
2019-05-26T00:51:16.888Z,97.80
2019-05-26T00:53:43.053Z,97.90
2019-05-26T00:56:09.139Z,97.90
2019-05-26T00:58:35.194Z,98.00
2019-05-26T01:01:01.255Z,98.00
2019-05-26T01:03:27.333Z,98.20
2019-05-26T01:05:53.398Z,98.20
2019-05-26T01:08:19.444Z,98.10
2019-05-26T01:10:45.512Z,98.30
2019-05-26T01:13:11.673Z,98.30
2019-05-26T01:15:37.731Z,99.90
2019-05-26T01:18:04.583Z,99.90
2019-05-26T01:20:30.648Z,99.90
2019-05-26T01:22:56.720Z,99.90
2019-05-26T01:25:22.780Z,99.90
2019-05-26T01:27:48.940Z,99.90
2019-05-26T01:30:15.413Z,99.10
2019-05-26T01:32:41.572Z,99.50
2019-05-26T01:35:07.833Z,99.70
2019-05-26T01:37:36.391Z,99.80
2019-05-26T01:40:05.264Z,99.70
2019-05-26T01:42:31.323Z,99.90
2019-05-26T01:44:57.385Z,99.90
2019-05-26T01:47:23.456Z,99.90
2019-05-26T01:49:49.523Z,99.90
2019-05-26T01:52:15.570Z,99.80
2019-05-26T01:54:41.633Z,99.90
2019-05-26T01:57:07.715Z,99.80
2019-05-26T01:59:33.782Z,99.90
2019-05-26T02:01:59.861Z,99.90
2019-05-26T02:04:26.003Z,99.90
2019-05-26T02:06:52.064Z,99.80
2019-05-26T02:09:18.132Z,99.90
2019-05-26T02:11:44.187Z,99.90
2019-05-26T02:14:14.229Z,99.90
2019-05-26T02:16:38.207Z,99.90
2019-05-26T02:19:04.267Z,99.90
2019-05-26T02:21:30.335Z,99.90
2019-05-26T02:23:56.397Z,99.90
2019-05-26T02:26:22.564Z,99.90
2019-05-26T02:28:48.630Z,99.90
2019-05-26T02:31:14.699Z,99.90
2019-05-26T02:33:40.753Z,99.90
2019-05-26T02:36:06.921Z,99.90
2019-05-26T02:38:32.981Z,99.90
2019-05-26T02:40:59.044Z,99.90
2019-05-26T02:43:25.100Z,99.90
2019-05-26T02:45:51.177Z,99.90
2019-05-26T02:48:17.228Z,99.90
2019-05-26T02:50:43.299Z,99.90
2019-05-26T02:53:09.361Z,99.90
2019-05-26T02:55:35.412Z,99.90
2019-05-26T02:58:01.494Z,99.90
2019-05-26T03:00:37.409Z,99.90
2019-05-26T03:03:03.568Z,99.90
2019-05-26T03:05:31.137Z,99.90
2019-05-26T03:07:57.398Z,99.90
2019-05-26T03:10:23.460Z,99.90
2019-05-26T03:12:50.529Z,99.90
2019-05-26T03:15:17.082Z,99.90
2019-05-26T03:17:45.849Z,99.90
2019-05-26T03:20:13.154Z,99.90
2019-05-26T03:22:39.594Z,99.90
2019-05-26T03:25:05.744Z,99.90
2019-05-26T03:27:31.824Z,99.90
2019-05-26T03:29:58.170Z,99.90
2019-05-26T03:32:24.225Z,99.90
2019-05-26T03:34:50.271Z,99.90
2019-05-26T03:37:16.348Z,99.90
2019-05-26T03:39:46.007Z,99.90
2019-05-26T03:42:10.468Z,99.90
2019-05-26T03:44:36.528Z,99.90
2019-05-26T03:47:02.592Z,99.90
2019-05-26T03:49:28.653Z,99.90
2019-05-26T03:51:54.907Z,99.90
2019-05-26T03:54:20.974Z,99.90
2019-05-26T03:56:47.048Z,99.90
2019-05-26T03:59:13.133Z,99.90
2019-05-26T04:01:39.191Z,99.90
2019-05-26T04:04:05.253Z,99.90
2019-05-26T04:06:31.320Z,99.90
2019-05-26T04:08:57.388Z,99.90
2019-05-26T04:11:23.625Z,99.90
2019-05-26T04:13:49.675Z,99.90
2019-05-26T04:16:15.836Z,99.90
2019-05-26T04:18:41.905Z,99.90
2019-05-26T04:21:07.956Z,99.90
2019-05-26T04:23:34.056Z,99.90
2019-05-26T04:26:00.292Z,99.90
2019-05-26T04:28:26.366Z,99.90
2019-05-26T04:30:52.434Z,99.90
2019-05-26T04:33:18.492Z,99.90
2019-05-26T04:35:44.556Z,99.90
2019-05-26T04:38:10.621Z,99.90
2019-05-26T04:40:36.686Z,99.90
2019-05-26T04:43:03.057Z,99.90
2019-05-26T04:45:29.107Z,99.90
2019-05-26T04:47:55.164Z,99.90
2019-05-26T04:50:21.231Z,99.90
2019-05-26T04:53:04.609Z,99.90
2019-05-26T04:55:15.256Z,99.90
2019-05-26T04:57:41.325Z,99.90
2019-05-26T05:00:08.994Z,99.90
2019-05-26T05:02:35.176Z,99.90
2019-05-26T05:05:02.920Z,99.90
2019-05-26T05:07:28.997Z,99.90
2019-05-26T05:09:55.143Z,99.90
2019-05-26T05:12:21.197Z,99.90
2019-05-26T05:14:47.361Z,99.90
2019-05-26T05:17:13.423Z,99.90
2019-05-26T05:19:39.498Z,99.90
2019-05-26T05:22:05.568Z,99.90
2019-05-26T05:24:31.635Z,99.90
2019-05-26T05:26:57.783Z,99.90
2019-05-26T05:29:23.875Z,99.90
2019-05-26T05:31:49.933Z,99.90
2019-05-26T05:34:15.989Z,99.90
2019-05-26T05:36:42.075Z,99.90
2019-05-26T05:39:08.124Z,99.90
2019-05-26T05:41:34.174Z,99.90
2019-05-26T05:44:00.249Z,99.90
2019-05-26T05:46:26.364Z,99.90
2019-05-26T05:48:52.496Z,99.90
2019-05-26T05:51:18.661Z,99.90
2019-05-26T05:53:44.775Z,99.90
2019-05-26T05:56:10.949Z,99.90
2019-05-26T05:58:37.100Z,99.90
2019-05-26T06:01:03.257Z,99.90
2019-05-26T06:03:29.388Z,99.90
2019-05-26T06:05:55.448Z,99.90
2019-05-26T06:08:21.529Z,99.90
2019-05-26T06:10:47.660Z,99.90
2019-05-26T06:13:13.708Z,99.90
2019-05-26T06:15:39.789Z,99.90
2019-05-26T06:18:05.848Z,99.70
2019-05-26T06:20:31.899Z,99.50
2019-05-26T06:22:57.969Z,99.10
2019-05-26T06:25:24.036Z,99.00
2019-05-26T06:27:50.101Z,99.20
2019-05-26T06:30:16.553Z,98.80
2019-05-26T06:32:42.627Z,99.20
2019-05-26T06:35:09.149Z,98.70
2019-05-26T06:37:35.242Z,98.40
2019-05-26T06:40:01.406Z,98.40
2019-05-26T06:42:27.470Z,97.90
2019-05-26T06:44:54.213Z,97.70
2019-05-26T06:47:20.417Z,98.00
2019-05-26T06:49:46.483Z,97.70
2019-05-26T06:52:12.554Z,97.40
2019-05-26T06:54:38.626Z,97.20
2019-05-26T06:57:04.709Z,97.10
2019-05-26T06:59:30.843Z,96.80
2019-05-26T07:01:57.024Z,96.50
2019-05-26T07:04:23.079Z,96.80
2019-05-26T07:06:49.136Z,97.20
2019-05-26T07:09:15.217Z,96.90
2019-05-26T07:11:54.262Z,96.70
2019-05-26T07:14:09.238Z,96.50
2019-05-26T07:16:38.405Z,97.00
2019-05-26T07:19:03.354Z,97.00
2019-05-26T07:21:29.458Z,97.20
2019-05-26T07:23:55.587Z,96.80
2019-05-26T07:26:21.664Z,96.80
2019-05-26T07:28:47.735Z,96.30
2019-05-26T07:31:13.887Z,96.30
2019-05-26T07:33:39.945Z,96.40
2019-05-26T07:36:06.007Z,96.50
2019-05-26T07:38:32.072Z,96.50
2019-05-26T07:40:58.133Z,96.60
2019-05-26T07:43:27.869Z,96.60
2019-05-26T07:45:52.168Z,96.40
2019-05-26T07:48:18.217Z,96.70
2019-05-26T07:50:44.279Z,96.80
2019-05-26T07:53:10.340Z,97.00
2019-05-26T07:55:36.407Z,96.40
2019-05-26T07:58:02.556Z,96.50
2019-05-26T08:00:28.749Z,97.00
2019-05-26T08:02:54.792Z,97.10
2019-05-26T08:05:20.853Z,97.20
2019-05-26T08:07:46.925Z,97.10
2019-05-26T08:10:13.287Z,96.90
2019-05-26T08:12:39.352Z,96.80
2019-05-26T08:15:06.523Z,96.70
2019-05-26T08:17:32.568Z,96.30
2019-05-26T08:19:58.623Z,96.60
2019-05-26T08:22:24.687Z,96.30
2019-05-26T08:24:50.743Z,96.20
2019-05-26T08:27:16.800Z,95.30
2019-05-26T08:29:42.863Z,95.20
2019-05-26T08:32:08.950Z,95.40
2019-05-26T08:34:35.002Z,95.50
2019-05-26T08:37:01.060Z,95.50
2019-05-26T08:39:27.218Z,94.60
2019-05-26T08:41:53.467Z,94.70
2019-05-26T08:44:19.606Z,94.40
2019-05-26T08:46:45.673Z,94.60
2019-05-26T08:49:11.734Z,95.00
2019-05-26T08:51:37.795Z,94.90
2019-05-26T08:54:04.015Z,94.40
2019-05-26T08:56:30.067Z,94.30
2019-05-26T08:58:56.144Z,94.00
2019-05-26T09:01:22.200Z,94.00
2019-05-26T09:03:48.261Z,93.40
2019-05-26T09:06:14.357Z,94.40
2019-05-26T09:08:40.499Z,94.30
2019-05-26T09:11:06.550Z,94.40
2019-05-26T09:13:32.610Z,93.40
2019-05-26T09:15:58.652Z,92.90
2019-05-26T09:18:24.720Z,93.10
2019-05-26T09:20:50.771Z,93.60
2019-05-26T09:23:16.823Z,92.40
2019-05-26T09:25:46.265Z,91.30
2019-05-26T09:28:10.941Z,91.70
2019-05-26T09:30:37.009Z,91.00
2019-05-26T09:33:03.151Z,91.10
2019-05-26T09:35:29.299Z,90.40
2019-05-26T09:37:55.373Z,90.70
2019-05-26T09:40:21.432Z,91.10
2019-05-26T09:42:47.572Z,90.90
2019-05-26T09:45:14.247Z,90.50
2019-05-26T09:47:40.298Z,90.80
2019-05-26T09:50:06.978Z,91.00
2019-05-26T09:52:33.035Z,91.20
2019-05-26T09:54:59.121Z,91.30
2019-05-26T09:57:25.173Z,91.10
2019-05-26T09:59:51.243Z,90.50
2019-05-26T10:02:17.312Z,90.00
2019-05-26T10:04:44.152Z,91.60
2019-05-26T10:07:14.910Z,90.60
2019-05-26T10:09:38.279Z,90.30
2019-05-26T10:12:04.379Z,89.30
2019-05-26T10:14:30.443Z,90.20
2019-05-26T10:16:56.553Z,91.30
2019-05-26T10:19:22.664Z,92.30
2019-05-26T10:21:48.741Z,92.20
2019-05-26T10:24:14.897Z,91.90
2019-05-26T10:26:41.060Z,93.00
2019-05-26T10:29:07.118Z,98.00
2019-05-26T10:31:33.173Z,89.60
2019-05-26T10:41:18.513Z,99.90
2019-05-26T10:43:47.590Z,88.30
2019-05-26T10:46:12.529Z,85.40
2019-05-26T10:51:07.009Z,84.10
2019-05-26T10:53:33.291Z,84.40
2019-05-26T10:55:59.388Z,85.00
2019-05-26T10:58:25.525Z,83.60
2019-05-26T11:00:51.644Z,81.80
2019-05-26T11:03:17.696Z,80.60
2019-05-26T11:13:03.204Z,74.60
2019-05-26T11:15:29.260Z,75.40
2019-05-26T11:17:55.325Z,74.80
2019-05-26T11:20:21.887Z,75.30
2019-05-26T11:22:47.944Z,76.00
2019-05-26T11:25:14.213Z,71.30
2019-05-26T11:27:40.276Z,69.50
2019-05-26T11:30:08.757Z,71.30
2019-05-26T11:32:34.864Z,71.30
2019-05-26T11:35:02.033Z,71.40
2019-05-26T11:37:28.672Z,72.30
2019-05-26T11:39:54.770Z,71.80
2019-05-26T11:42:20.826Z,71.00
2019-05-26T11:44:46.949Z,71.60
2019-05-26T11:49:39.446Z,71.80
2019-05-26T13:51:51.786Z,53.70
2019-05-26T13:54:17.952Z,53.50
2019-05-26T13:56:44.017Z,54.30
2019-05-26T13:59:10.066Z,52.30
2019-05-26T14:08:55.922Z,50.80
2019-05-26T14:11:21.981Z,52.70
2019-05-26T14:13:48.033Z,49.50
2019-05-26T14:16:14.999Z,48.10
2019-05-26T14:18:42.863Z,44.90
2019-05-26T14:21:08.947Z,47.20
2019-05-26T19:09:21.552Z,83.10
2019-05-26T19:11:47.609Z,59.50
2019-05-26T19:14:13.690Z,57.10
2019-05-26T19:16:39.761Z,62.80
2019-05-26T19:19:05.928Z,69.20
2019-05-26T19:21:32.090Z,61.60
2019-05-26T19:23:58.140Z,46.00
2019-05-26T19:26:24.192Z,58.20
2019-05-26T19:28:50.265Z,48.70
2019-05-26T19:31:16.328Z,46.80
2019-05-26T19:33:42.385Z,47.10
2019-05-26T19:36:09.714Z,47.50
2019-05-26T19:38:36.076Z,47.70
2019-05-26T19:41:02.150Z,48.20
2019-05-26T19:43:28.219Z,48.30
2019-05-26T19:45:54.673Z,48.50
2019-05-26T19:48:34.983Z,48.90
2019-05-26T19:50:48.707Z,49.20
2019-05-26T19:53:14.776Z,49.70
2019-05-26T19:55:40.828Z,50.00
2019-05-26T19:58:06.887Z,50.80
2019-05-26T20:00:32.958Z,50.90
2019-05-26T20:02:59.047Z,51.10
2019-05-26T20:05:25.191Z,51.90
2019-05-26T20:07:51.265Z,52.30
2019-05-26T20:10:17.541Z,52.80
2019-05-26T20:12:43.605Z,53.00
2019-05-26T20:15:13.280Z,53.10
2019-05-26T20:17:39.361Z,53.20
2019-05-26T20:20:07.110Z,54.10
2019-05-26T20:22:33.190Z,54.10
2019-05-26T20:24:59.259Z,54.50
2019-05-26T20:27:25.317Z,54.50
2019-05-26T20:29:51.395Z,54.90
2019-05-26T20:32:17.436Z,55.00
2019-05-26T20:34:43.505Z,55.50
2019-05-26T20:37:09.564Z,55.90
2019-05-26T20:39:35.620Z,56.50
2019-05-26T20:42:01.693Z,56.70
2019-05-26T20:44:27.743Z,57.10
2019-05-26T20:46:53.812Z,56.90
2019-05-26T20:49:19.880Z,57.50
2019-05-26T20:51:46.030Z,57.90
2019-05-26T20:54:12.121Z,58.00
2019-05-26T20:56:39.250Z,58.50
2019-05-26T20:59:05.499Z,59.20
2019-05-26T21:01:31.597Z,59.20
2019-05-26T21:03:57.663Z,59.40
2019-05-26T21:06:23.804Z,60.20
2019-05-26T21:08:49.864Z,60.50
2019-05-26T21:11:15.922Z,61.30
2019-05-26T21:13:42.056Z,61.50
2019-05-26T21:16:08.159Z,62.40
2019-05-26T21:18:34.207Z,65.40
2019-05-26T21:21:00.290Z,67.10
2019-05-26T21:23:26.344Z,66.70
2019-05-26T21:25:52.397Z,67.20
2019-05-26T21:28:18.465Z,69.50
2019-05-26T21:30:44.520Z,69.40
2019-05-26T21:33:10.607Z,70.00
2019-05-26T21:35:36.751Z,70.70
2019-05-26T21:38:02.904Z,71.60
2019-05-26T21:40:28.988Z,72.00
2019-05-26T21:42:55.042Z,72.70
2019-05-26T21:45:21.201Z,73.10
2019-05-26T21:47:47.273Z,75.30
2019-05-26T21:50:13.522Z,75.50
2019-05-26T21:52:39.590Z,76.70
2019-05-26T21:55:05.851Z,77.20
2019-05-26T21:57:31.903Z,77.60
2019-05-26T21:59:57.974Z,78.10
2019-05-26T22:02:24.062Z,79.10
2019-05-26T22:04:50.211Z,79.50
2019-05-26T22:07:16.269Z,80.90
2019-05-26T22:09:42.340Z,82.30
2019-05-26T22:12:08.462Z,81.60
2019-05-26T22:14:34.567Z,81.90
2019-05-26T22:17:00.634Z,82.30
2019-05-26T22:19:26.681Z,82.90
2019-05-26T22:21:52.751Z,83.80
2019-05-26T22:24:18.815Z,84.20
2019-05-26T22:26:44.876Z,85.30
2019-05-26T22:29:10.935Z,85.50
2019-05-26T22:31:36.987Z,85.10
2019-05-26T22:34:03.265Z,85.50
2019-05-26T22:36:29.315Z,86.30
2019-05-26T22:38:55.372Z,86.20
2019-05-26T22:41:21.516Z,86.80
2019-05-26T22:43:47.612Z,88.30
2019-05-26T22:46:13.665Z,88.60
2019-05-26T22:48:39.750Z,88.20
2019-05-26T22:51:05.811Z,88.70
2019-05-26T22:53:31.863Z,88.80
2019-05-26T22:55:57.927Z,89.30
2019-05-26T22:58:24.097Z,89.10
2019-05-26T23:00:50.152Z,89.20
2019-05-26T23:03:16.247Z,89.70
2019-05-26T23:05:42.301Z,89.60
2019-05-26T23:08:08.352Z,89.70
2019-05-26T23:10:34.523Z,90.00
2019-05-26T23:13:00.583Z,90.10
2019-05-26T23:15:27.141Z,90.00
2019-05-26T23:17:53.216Z,90.20
2019-05-26T23:20:19.426Z,90.30
2019-05-26T23:22:45.525Z,90.40
2019-05-26T23:25:12.191Z,90.70
2019-05-26T23:27:38.271Z,90.60
2019-05-26T23:30:05.643Z,90.70
2019-05-26T23:32:31.810Z,91.10
2019-05-26T23:34:57.864Z,91.20
2019-05-26T23:37:23.939Z,91.10
2019-05-26T23:39:50.005Z,91.30
2019-05-26T23:42:16.063Z,91.40
2019-05-26T23:44:42.115Z,91.50
2019-05-26T23:47:08.193Z,92.10
2019-05-26T23:49:34.251Z,93.00
2019-05-26T23:52:00.311Z,93.00
2019-05-26T23:54:26.396Z,92.70
2019-05-26T23:56:52.536Z,93.00
2019-05-26T23:59:18.600Z,92.80
